OITM 
Sahand Airport
Maragheh, Iran 
ICAOIATAStatus
OITMACPOperational
LatitudeLongitude
37° 20' 52" N46° 7' 40" E
37.34800046.127899
Local Time (DST+5)UTC (GMT+4)
04-19-2014 11:32 am04-19-2014 07:02
Sunrise-SunsetLocalUTC
Begin Civil Twilight06:16 am01:46
Sunrise06:43 am02:13
Sunset08:05 pm15:35
End Civil Twilight08:32 pm16:02

Current Weather

METARObservedFlight Conditions

OITM 190600Z 09010KT 9999 FEW035TCU FEW040 18/07 Q1019

Sat, Apr 19, 2014 @ 06:00 UTC(Z)

(1 Hour, 2 Minutes ago)

VFR

(Visual Flight Rules)

WindVisibilityCloudsConditions
090° at 10 knots (19 kph)
10 km or more
  • Few at 3,500' AGL
  • Few at 4,000' AGL
  • No significant weather
TemperaturesReadingsPrecipitation
Current Temp18°C (64°F)
Dewpoint7°C (45°F)
Humidity49%
Altimeter30.09"Hg
Sea Level Pressure1019mb
Field Elevation4396.33'
None Recorded

Additional weather within a 92.6km radius of OITM

Location METAR
OITT

87.8km N (006°)

32 minutes ago
VFR VFR    MVFR MVFR    IFR IFR    LIFR LIFR    Unknown Unknown

Previous 24 hour Weather Graphs

  Loading...

CheckWX.com is intended as a tool to help pilots better visualize weather data.   It is not intended as a substitute for an official weather briefing obtained from a Flight Service Station.
CheckWX.com does not meet the FAA requirements for an official pre-flight weather briefing.   Therefore, it's important that pilots still call and obtain an official FSS pre-flight weather briefing.